createdAt,value
2016-05-26T00:00:09.762Z,994.7
2016-05-26T00:01:09.779Z,994.7
2016-05-26T00:02:09.814Z,994.72
2016-05-26T00:03:09.784Z,994.72
2016-05-26T00:04:09.788Z,994.73
2016-05-26T00:05:09.806Z,994.75
2016-05-26T00:06:09.809Z,994.73
2016-05-26T00:07:09.811Z,994.71
2016-05-26T00:08:09.830Z,994.72
2016-05-26T00:09:09.833Z,994.72
2016-05-26T00:10:09.835Z,994.71
2016-05-26T00:11:09.853Z,994.69
2016-05-26T00:12:10.090Z,994.65
2016-05-26T00:13:09.874Z,994.64
2016-05-26T00:14:09.862Z,994.66
2016-05-26T00:15:09.864Z,994.64
2016-05-26T00:16:09.883Z,994.63
2016-05-26T00:17:09.900Z,994.64
2016-05-26T00:18:09.966Z,994.6
2016-05-26T00:19:09.906Z,994.66
2016-05-26T00:20:09.909Z,994.65
2016-05-26T00:21:09.911Z,994.62
2016-05-26T00:22:09.930Z,994.65
2016-05-26T00:23:09.933Z,994.62
2016-05-26T00:24:09.951Z,994.62
2016-05-26T00:25:09.954Z,994.62
2016-05-26T00:26:09.971Z,994.63
2016-05-26T00:27:09.974Z,994.6
2016-05-26T00:28:10.180Z,994.62
2016-05-26T00:29:10.011Z,994.64
2016-05-26T00:30:09.998Z,994.64
2016-05-26T00:31:10.188Z,994.62
2016-05-26T00:32:10.003Z,994.6
2016-05-26T00:33:10.272Z,994.59
2016-05-26T00:34:10.009Z,994.59
2016-05-26T00:35:10.043Z,994.6
2016-05-26T00:36:10.062Z,994.58
2016-05-26T00:37:10.049Z,994.56
2016-05-26T00:38:10.067Z,994.59
2016-05-26T00:39:10.085Z,994.56
2016-05-26T00:40:10.072Z,994.54
2016-05-26T00:41:10.075Z,994.54
2016-05-26T00:42:10.078Z,994.57
2016-05-26T00:43:10.095Z,994.51
2016-05-26T00:44:10.098Z,994.53
2016-05-26T00:45:10.100Z,994.5
2016-05-26T00:46:10.103Z,994.55
2016-05-26T00:47:10.122Z,994.49
2016-05-26T00:48:10.531Z,994.49
2016-05-26T00:49:10.143Z,994.49
2016-05-26T00:50:10.146Z,994.5
2016-05-26T00:51:10.149Z,994.47
2016-05-26T00:52:10.151Z,994.52
2016-05-26T00:53:10.169Z,994.51
2016-05-26T00:54:10.172Z,994.5
2016-05-26T00:55:10.174Z,994.54
2016-05-26T00:56:10.193Z,994.55
2016-05-26T00:57:10.180Z,994.55
2016-05-26T00:58:10.199Z,994.53
2016-05-26T00:59:10.201Z,994.49
2016-05-26T01:00:10.204Z,994.5
2016-05-26T01:01:10.223Z,994.49
2016-05-26T01:02:10.225Z,994.46
2016-05-26T01:03:10.228Z,994.5
2016-05-26T01:04:10.231Z,994.5
2016-05-26T01:05:10.249Z,994.45
2016-05-26T01:06:10.251Z,994.46
2016-05-26T01:07:10.457Z,994.49
2016-05-26T01:08:10.272Z,994.46
2016-05-26T01:09:10.275Z,994.46
2016-05-26T01:10:10.278Z,994.44
2016-05-26T01:11:10.280Z,994.45
2016-05-26T01:12:10.299Z,994.43
2016-05-26T01:13:10.301Z,994.43
2016-05-26T01:14:10.303Z,994.42
2016-05-26T01:15:10.322Z,994.41
2016-05-26T01:16:10.341Z,994.42
2016-05-26T01:17:10.328Z,994.38
2016-05-26T01:18:10.346Z,994.43
2016-05-26T01:19:10.333Z,994.42
2016-05-26T01:20:10.383Z,994.44
2016-05-26T01:21:10.355Z,994.45
2016-05-26T01:22:10.357Z,994.41
2016-05-26T01:23:10.359Z,994.44
2016-05-26T01:24:10.363Z,994.47
2016-05-26T01:25:10.380Z,994.46
2016-05-26T01:26:10.383Z,994.43
2016-05-26T01:27:10.385Z,994.44
2016-05-26T01:28:10.404Z,994.4
2016-05-26T01:29:10.610Z,994.45
2016-05-26T01:30:10.409Z,994.46
2016-05-26T01:31:10.413Z,994.43
2016-05-26T01:32:10.415Z,994.4
2016-05-26T01:33:10.434Z,994.4
2016-05-26T01:34:10.436Z,994.39
2016-05-26T01:35:10.439Z,994.39
2016-05-26T01:36:10.457Z,994.39
2016-05-26T01:37:10.445Z,994.42
2016-05-26T01:38:10.463Z,994.42
2016-05-26T01:39:10.465Z,994.42
2016-05-26T01:40:10.468Z,994.38
2016-05-26T01:41:10.486Z,994.44
2016-05-26T01:42:10.489Z,994.43
2016-05-26T01:43:10.492Z,994.43
2016-05-26T01:44:10.494Z,994.36
2016-05-26T01:45:10.497Z,994.41
2016-05-26T01:46:10.499Z,994.39
2016-05-26T01:47:10.517Z,994.39
2016-05-26T01:48:10.520Z,994.37
2016-05-26T01:49:10.522Z,994.36
2016-05-26T01:50:10.541Z,994.4
2016-05-26T01:51:10.528Z,994.4
2016-05-26T01:52:10.547Z,994.39
2016-05-26T01:53:10.566Z,994.37
2016-05-26T01:54:10.568Z,994.38
2016-05-26T01:55:10.555Z,994.39
2016-05-26T01:56:10.558Z,994.37
2016-05-26T01:57:10.577Z,994.4
2016-05-26T01:58:10.579Z,994.36
2016-05-26T01:59:10.582Z,994.36
2016-05-26T02:00:10.584Z,994.36
2016-05-26T02:01:10.634Z,994.36
2016-05-26T02:02:10.605Z,994.38
2016-05-26T02:03:10.639Z,994.38
2016-05-26T02:04:10.626Z,994.42
2016-05-26T02:05:10.628Z,994.4
2016-05-26T02:06:10.632Z,994.43
2016-05-26T02:07:10.634Z,994.47
2016-05-26T02:08:10.637Z,994.47
2016-05-26T02:09:10.655Z,994.47
2016-05-26T02:10:10.658Z,994.46
2016-05-26T02:11:10.661Z,994.45
2016-05-26T02:12:10.663Z,994.51
2016-05-26T02:13:10.682Z,994.5
2016-05-26T02:14:10.700Z,994.52
2016-05-26T02:15:10.686Z,994.52
2016-05-26T02:16:10.689Z,994.51
2016-05-26T02:17:10.708Z,994.54
2016-05-26T02:18:10.914Z,994.6
2016-05-26T02:19:10.714Z,994.57
2016-05-26T02:20:10.716Z,994.6
2016-05-26T02:21:10.734Z,994.62
2016-05-26T02:22:10.737Z,994.61
2016-05-26T02:23:10.739Z,994.61
2016-05-26T02:24:10.742Z,994.62
2016-05-26T02:25:10.744Z,994.66
2016-05-26T02:26:10.763Z,994.68
2016-05-26T02:27:10.766Z,994.65
2016-05-26T02:28:10.799Z,994.65
2016-05-26T02:29:10.787Z,994.65
2016-05-26T02:30:10.774Z,994.61
2016-05-26T02:31:10.792Z,994.6
2016-05-26T02:32:10.810Z,994.62
2016-05-26T02:33:10.813Z,994.58
2016-05-26T02:34:10.816Z,994.6
2016-05-26T02:35:10.819Z,994.58
2016-05-26T02:36:10.821Z,994.6
2016-05-26T02:37:10.840Z,994.61
2016-05-26T02:38:10.859Z,994.6
2016-05-26T02:39:10.861Z,994.63
2016-05-26T02:40:10.864Z,994.62
2016-05-26T02:41:10.867Z,994.64
2016-05-26T02:42:10.869Z,994.66
2016-05-26T02:43:10.872Z,994.66
2016-05-26T02:44:10.875Z,994.64
2016-05-26T02:45:10.892Z,994.65
2016-05-26T02:46:10.942Z,994.65
2016-05-26T02:47:10.913Z,994.62
2016-05-26T02:48:10.963Z,994.61
2016-05-26T02:49:10.919Z,994.64
2016-05-26T02:50:10.936Z,994.65
2016-05-26T02:51:10.939Z,994.64
2016-05-26T02:52:11.005Z,994.62
2016-05-26T02:53:10.945Z,994.65
2016-05-26T02:54:10.948Z,994.66
2016-05-26T02:55:10.951Z,994.65
2016-05-26T02:56:10.999Z,994.64
2016-05-26T02:57:10.988Z,994.65
2016-05-26T02:58:10.975Z,994.65
2016-05-26T02:59:11.008Z,994.66
2016-05-26T03:01:11.045Z,994.68
2016-05-26T03:02:11.016Z,994.66
2016-05-26T03:03:11.035Z,994.65
2016-05-26T03:04:11.006Z,994.67
2016-05-26T03:05:11.024Z,994.65
2016-05-26T03:06:11.105Z,994.72
2016-05-26T03:07:11.076Z,994.68
2016-05-26T03:08:11.065Z,994.72
2016-05-26T03:09:11.067Z,994.68
2016-05-26T03:10:11.084Z,994.68
2016-05-26T03:11:11.806Z,994.71
2016-05-26T03:12:12.403Z,994.67
2016-05-26T03:13:11.453Z,994.65
2016-05-26T03:14:11.690Z,994.65
2016-05-26T03:15:11.411Z,994.64
2016-05-26T03:16:11.242Z,994.65
2016-05-26T03:17:11.198Z,994.64
2016-05-26T03:18:11.466Z,994.61
2016-05-26T03:19:11.234Z,994.64
2016-05-26T03:20:11.392Z,994.63
2016-05-26T03:21:11.474Z,994.67
2016-05-26T03:22:11.289Z,994.68
2016-05-26T03:24:11.263Z,994.74
2016-05-26T03:25:11.360Z,994.75
2016-05-26T03:28:11.711Z,994.82
2016-05-26T03:29:13.214Z,994.83
2016-05-26T07:32:16.399Z,996.1
2016-05-26T07:33:16.417Z,996.13
2016-05-26T07:34:16.419Z,996.12
2016-05-26T07:35:16.453Z,996.12
2016-05-26T07:36:16.440Z,996.15
2016-05-26T07:37:16.473Z,996.14
2016-05-26T07:38:16.533Z,996.17
2016-05-26T07:39:16.544Z,996.15
2016-05-26T07:40:16.588Z,996.17
2016-05-26T07:41:16.630Z,996.17
2016-05-26T07:42:16.649Z,996.18
2016-05-26T07:43:16.896Z,996.2
2016-05-26T07:45:16.715Z,996.23
2016-05-26T07:46:16.742Z,996.23
2016-05-26T07:47:16.751Z,996.24
2016-05-26T07:48:16.756Z,996.23
2016-05-26T07:49:16.779Z,996.3
2016-05-26T07:50:16.785Z,996.29
2016-05-26T07:51:16.806Z,996.3
2016-05-26T07:52:16.827Z,996.32
2016-05-26T07:53:16.815Z,996.31
2016-05-26T07:54:16.850Z,996.33
2016-05-26T07:55:16.870Z,996.28
2016-05-26T07:56:17.077Z,996.32
2016-05-26T07:57:16.877Z,996.3
2016-05-26T07:58:16.895Z,996.32
2016-05-26T07:59:16.915Z,996.31
2016-05-26T08:00:16.918Z,996.32
2016-05-26T08:01:16.920Z,996.3
2016-05-26T08:02:16.939Z,996.26
2016-05-26T08:03:16.957Z,996.25
2016-05-26T08:04:16.960Z,996.2
2016-05-26T08:05:17.010Z,996.16
2016-05-26T08:06:16.981Z,996.26
2016-05-26T08:07:17.015Z,996.33
2016-05-26T08:08:17.017Z,996.37
2016-05-26T08:09:17.021Z,996.4
2016-05-26T08:10:17.039Z,996.39
2016-05-26T08:11:17.057Z,996.33
2016-05-26T08:12:17.060Z,996.31
2016-05-26T08:13:17.078Z,996.35
2016-05-26T08:14:17.081Z,996.33
2016-05-26T08:15:17.099Z,996.31
2016-05-26T08:16:17.102Z,996.39
2016-05-26T08:17:17.167Z,996.31
2016-05-26T08:18:17.200Z,996.31
2016-05-26T08:19:17.251Z,996.29
2016-05-26T08:20:17.175Z,996.29
2016-05-26T08:21:17.193Z,996.27
2016-05-26T08:22:17.180Z,996.21
2016-05-26T08:23:17.198Z,996.18
2016-05-26T08:24:17.248Z,996.16
2016-05-26T08:25:17.235Z,996.15
2016-05-26T08:26:17.425Z,996.16
2016-05-26T08:27:17.350Z,996.17
2016-05-26T08:28:17.258Z,996.18
2016-05-26T08:29:17.277Z,996.21
2016-05-26T08:30:17.311Z,996.26
2016-05-26T08:31:17.313Z,996.35
2016-05-26T08:32:17.316Z,996.37
2016-05-26T08:33:17.336Z,996.37
2016-05-26T08:34:17.337Z,996.36
2016-05-26T08:35:17.355Z,996.42
2016-05-26T08:36:17.358Z,996.52
2016-05-26T08:37:17.580Z,996.54
2016-05-26T08:38:17.396Z,996.54
2016-05-26T08:39:17.414Z,996.59
2016-05-26T08:40:17.415Z,996.63
2016-05-26T08:41:17.419Z,996.63
2016-05-26T08:42:17.438Z,996.61
2016-05-26T08:43:17.471Z,996.61
2016-05-26T08:44:17.474Z,996.53
2016-05-26T08:45:17.476Z,996.53
2016-05-26T08:46:17.510Z,996.51
2016-05-26T08:47:17.513Z,996.46
2016-05-26T08:49:17.534Z,996.33
2016-05-26T08:50:17.537Z,996.3
2016-05-26T08:51:17.556Z,996.25
2016-05-26T08:52:17.573Z,996.28
2016-05-26T08:53:17.576Z,996.23
2016-05-26T08:54:17.594Z,996.21
2016-05-26T08:55:17.612Z,996.21
2016-05-26T08:56:17.631Z,996.17
2016-05-26T08:57:17.650Z,996.14
2016-05-26T08:58:17.652Z,996.16
2016-05-26T08:59:17.686Z,996.19
2016-05-26T09:00:17.720Z,996.17
2016-05-26T09:01:17.691Z,996.13
2016-05-26T09:02:17.710Z,996.13
2016-05-26T09:03:17.713Z,996.19
2016-05-26T09:04:17.730Z,996.29
2016-05-26T09:05:17.749Z,996.29
2016-05-26T09:06:17.783Z,996.28
2016-05-26T09:07:17.988Z,996.25
2016-05-26T09:08:17.788Z,996.23
2016-05-26T09:09:17.791Z,996.21
2016-05-26T09:10:17.809Z,996.21
2016-05-26T09:11:18.062Z,996.23
2016-05-26T09:12:18.174Z,996.25
2016-05-26T09:13:17.832Z,996.22
2016-05-26T09:14:17.851Z,996.26
2016-05-26T09:15:17.870Z,996.21
2016-05-26T09:16:17.888Z,996.3
2016-05-26T09:17:18.093Z,996.37
2016-05-26T09:18:18.128Z,996.41
2016-05-26T09:19:17.912Z,996.41
2016-05-26T09:20:17.929Z,996.41
2016-05-26T09:21:17.932Z,996.41
2016-05-26T09:22:17.951Z,996.41
2016-05-26T09:23:17.954Z,996.44
2016-05-26T09:24:17.973Z,996.51
2016-05-26T09:25:17.989Z,996.52
2016-05-26T09:26:18.134Z,996.58
2016-05-26T09:27:18.198Z,996.67
2016-05-26T09:28:18.014Z,996.72
2016-05-26T09:29:18.048Z,996.67
2016-05-26T09:30:18.051Z,996.6
2016-05-26T09:31:18.069Z,996.52
2016-05-26T09:32:18.244Z,996.47
2016-05-26T09:33:18.075Z,996.42
2016-05-26T09:34:18.108Z,996.4
2016-05-26T09:35:18.345Z,996.46
2016-05-26T09:36:18.504Z,996.56
2016-05-26T09:37:18.147Z,996.6
2016-05-26T09:38:18.400Z,996.61
2016-05-26T09:39:18.169Z,996.56
2016-05-26T09:40:18.171Z,996.5
2016-05-26T09:41:18.174Z,996.48
2016-05-26T09:42:18.349Z,996.45
2016-05-26T09:43:18.570Z,996.48
2016-05-26T09:44:18.463Z,996.43
2016-05-26T09:45:18.435Z,996.45
2016-05-26T09:46:18.250Z,996.43
2016-05-26T09:47:18.299Z,996.41
2016-05-26T09:48:18.302Z,996.4
2016-05-26T09:49:18.290Z,996.39
2016-05-26T09:50:18.620Z,996.42
2016-05-26T09:51:18.310Z,996.43
2016-05-26T09:52:18.312Z,996.49
2016-05-26T09:53:18.551Z,996.5
2016-05-26T09:54:18.350Z,996.51
2016-05-26T09:55:18.368Z,996.56
2016-05-26T09:56:18.370Z,996.5
2016-05-26T09:57:18.389Z,996.42
2016-05-26T09:58:18.548Z,996.4
2016-05-26T09:59:18.598Z,996.35
2016-05-26T10:00:18.428Z,996.29
2016-05-26T10:01:18.431Z,996.23
2016-05-26T10:02:18.449Z,996.23
2016-05-26T10:03:18.483Z,996.18
2016-05-26T10:04:18.486Z,996.21
2016-05-26T10:05:18.505Z,996.22
2016-05-26T10:06:18.507Z,996.2
2016-05-26T10:07:18.728Z,996.16
2016-05-26T10:08:18.544Z,996.16
2016-05-26T10:09:18.546Z,996.16
2016-05-26T10:10:18.564Z,996.2
2016-05-26T10:11:18.583Z,996.2
2016-05-26T10:12:18.602Z,996.21
2016-05-26T10:13:18.619Z,996.18
2016-05-26T10:14:18.841Z,996.25
2016-05-26T10:15:18.625Z,996.32
2016-05-26T10:16:18.643Z,996.36
2016-05-26T10:17:18.864Z,996.33
2016-05-26T10:18:18.680Z,996.3
2016-05-26T10:19:18.682Z,996.33
2016-05-26T10:20:18.701Z,996.33
2016-05-26T10:21:18.718Z,996.37
2016-05-26T10:22:18.940Z,996.39
2016-05-26T10:24:18.759Z,996.36
2016-05-26T10:25:18.761Z,996.31
2016-05-26T10:26:18.779Z,996.33
2016-05-26T10:27:18.798Z,996.31
2016-05-26T10:28:18.817Z,996.29
2016-05-26T10:29:18.834Z,996.26
2016-05-26T10:30:18.837Z,996.27
2016-05-26T10:31:18.855Z,996.26
2016-05-26T10:32:18.873Z,996.28
2016-05-26T10:33:18.955Z,996.27
2016-05-26T10:34:19.097Z,996.25
2016-05-26T10:35:19.038Z,996.24
2016-05-26T10:36:18.930Z,996.25
2016-05-26T10:37:19.200Z,996.2
2016-05-26T10:38:18.952Z,996.17
2016-05-26T10:40:18.989Z,996.1
2016-05-26T10:41:18.991Z,996.12
2016-05-26T10:42:19.010Z,996.11
2016-05-26T10:43:19.027Z,996.09
2016-05-26T10:44:19.030Z,996.13
2016-05-26T10:45:19.050Z,996.13
2016-05-26T10:46:19.068Z,996.12
2016-05-26T10:47:19.289Z,996.16
2016-05-26T10:48:19.088Z,996.18
2016-05-26T10:49:19.107Z,996.15
2016-05-26T10:50:19.125Z,996.11
2016-05-26T10:51:19.129Z,996.13
2016-05-26T10:52:19.177Z,996.15
2016-05-26T10:53:19.180Z,996.26
2016-05-26T10:54:19.182Z,996.28
2016-05-26T10:55:19.185Z,996.31
2016-05-26T10:56:19.203Z,996.32
2016-05-26T10:57:19.222Z,996.27
2016-05-26T10:58:19.240Z,996.25
2016-05-26T10:59:19.259Z,996.2
2016-05-26T11:00:19.261Z,996.23
2016-05-26T11:01:19.280Z,996.2
2016-05-26T11:02:19.298Z,996.17
2016-05-26T11:03:19.347Z,996.21
2016-05-26T11:04:19.319Z,996.16
2016-05-26T11:05:19.337Z,996.17
2016-05-26T11:06:19.356Z,996.14
2016-05-26T11:07:19.358Z,996.18
2016-05-26T11:08:19.392Z,996.16
2016-05-26T11:09:19.395Z,996.2
2016-05-26T11:10:19.413Z,996.23
2016-05-26T11:11:19.416Z,996.17
2016-05-26T11:12:19.435Z,996.11
2016-05-26T11:13:19.452Z,996.11
2016-05-26T11:14:19.471Z,996.05
2016-05-26T11:15:19.504Z,996.03
2016-05-26T11:16:19.507Z,996.02
2016-05-26T11:17:19.510Z,996.04
2016-05-26T11:18:19.529Z,996.07
2016-05-26T11:19:19.547Z,996.02
2016-05-26T11:20:19.549Z,996.02
2016-05-26T11:21:19.568Z,996.05
2016-05-26T11:22:19.587Z,996.03
2016-05-26T11:23:19.604Z,995.99
2016-05-26T11:24:19.607Z,996.01
2016-05-26T11:25:19.626Z,995.97
2016-05-26T11:26:19.643Z,995.98
2016-05-26T11:27:19.662Z,996.02
2016-05-26T11:28:19.867Z,996.05
2016-05-26T11:29:19.684Z,995.98
2016-05-26T11:30:19.717Z,995.93
2016-05-26T11:31:19.720Z,996.05
2016-05-26T11:32:19.722Z,996.07
2016-05-26T11:33:19.741Z,996.1
2016-05-26T11:34:19.775Z,996.12
2016-05-26T11:35:19.778Z,996.04
2016-05-26T11:36:19.795Z,996.04
2016-05-26T11:37:19.814Z,996.05
2016-05-26T11:38:19.833Z,996.1
2016-05-26T11:39:19.850Z,996.14
2016-05-26T11:40:19.853Z,996.19
2016-05-26T11:41:19.872Z,996.2
2016-05-26T11:42:19.875Z,996.18
2016-05-26T11:43:19.908Z,996.19
2016-05-26T11:44:19.911Z,996.18
2016-05-26T11:45:19.929Z,996.19
2016-05-26T11:46:19.932Z,996.17
2016-05-26T11:47:19.950Z,996.18
2016-05-26T11:48:20.344Z,996.27
2016-05-26T11:49:19.987Z,996.38
2016-05-26T11:50:20.021Z,996.39
2016-05-26T11:51:20.024Z,996.19
2016-05-26T11:52:20.058Z,996.07
2016-05-26T11:53:20.060Z,996.09
2016-05-26T11:54:20.063Z,996.09
2016-05-26T11:55:20.081Z,995.97
2016-05-26T11:56:20.081Z,995.99
2016-05-26T11:57:20.118Z,995.96
2016-05-26T11:58:20.136Z,995.92
2016-05-26T11:59:20.136Z,995.99
2016-05-26T12:00:20.155Z,996.1
2016-05-26T12:01:20.394Z,996.17
2016-05-26T12:02:20.191Z,996.25
2016-05-26T12:03:20.209Z,996.21
2016-05-26T12:04:20.212Z,996.21
2016-05-26T12:05:20.231Z,996.21
2016-05-26T12:06:20.248Z,996.13
2016-05-26T12:07:20.267Z,996.07
2016-05-26T12:08:20.286Z,996.02
2016-05-26T12:09:20.303Z,995.97
2016-05-26T12:10:20.323Z,995.97
2016-05-26T12:11:20.341Z,995.97
2016-05-26T12:12:20.374Z,995.88
2016-05-26T12:13:20.377Z,995.89
2016-05-26T12:14:20.380Z,995.87
2016-05-26T12:15:20.383Z,995.87
2016-05-26T12:16:20.416Z,995.9
2016-05-26T12:17:20.419Z,995.94
2016-05-26T12:18:20.437Z,995.97
2016-05-26T12:19:20.455Z,996.04
2016-05-26T12:20:20.677Z,996.11
2016-05-26T12:21:20.477Z,996.15
2016-05-26T12:22:20.495Z,996.15
2016-05-26T12:23:20.513Z,996.07
2016-05-26T12:24:20.531Z,996.06
2016-05-26T12:25:20.550Z,996
2016-05-26T12:26:20.568Z,995.96
2016-05-26T12:27:20.586Z,995.91
2016-05-26T12:28:20.590Z,995.88
2016-05-26T12:29:20.607Z,995.88
2016-05-26T12:30:20.626Z,995.92
2016-05-26T12:31:20.645Z,996.01
2016-05-26T12:32:20.662Z,996.08
2016-05-26T12:33:20.681Z,996.11
2016-05-26T12:34:20.903Z,996.05
2016-05-26T12:35:20.702Z,996.09
2016-05-26T12:36:20.720Z,996.14
2016-05-26T12:37:20.738Z,996.02
2016-05-26T12:38:20.742Z,995.9
2016-05-26T12:39:20.792Z,995.85
2016-05-26T12:40:20.794Z,995.86
2016-05-26T12:41:20.812Z,995.8
2016-05-26T12:42:20.814Z,995.8
2016-05-26T12:43:20.833Z,995.85
2016-05-26T12:44:20.835Z,995.97
2016-05-26T12:45:21.261Z,996.05
2016-05-26T12:46:20.872Z,996.04
2016-05-26T12:47:20.891Z,996
2016-05-26T12:48:20.908Z,996.04
2016-05-26T12:49:21.130Z,996.08
2016-05-26T12:50:21.164Z,996.05
2016-05-26T12:51:21.151Z,996.03
2016-05-26T12:52:20.966Z,996.01
2016-05-26T12:53:20.985Z,995.99
2016-05-26T12:54:21.003Z,996.02
2016-05-26T12:55:21.021Z,995.98
2016-05-26T12:56:21.040Z,995.99
2016-05-26T12:57:21.058Z,995.98
2016-05-26T12:58:21.061Z,995.92
2016-05-26T12:59:21.079Z,995.99
2016-05-26T13:00:21.098Z,996
2016-05-26T13:01:21.101Z,996
2016-05-26T13:02:21.134Z,995.94
2016-05-26T13:03:21.465Z,995.91
2016-05-26T13:04:21.155Z,995.92
2016-05-26T13:05:21.407Z,995.92
2016-05-26T13:06:21.192Z,995.87
2016-05-26T13:07:21.257Z,995.81
2016-05-26T13:08:21.212Z,995.79
2016-05-26T13:09:21.231Z,995.86
2016-05-26T13:10:21.328Z,995.97
2016-05-26T13:11:21.534Z,995.86
2016-05-26T13:12:21.348Z,995.81
2016-05-26T13:13:21.679Z,995.79
2016-05-26T13:14:21.307Z,995.81
2016-05-26T13:15:21.356Z,995.88
2016-05-26T13:16:21.562Z,995.86
2016-05-26T13:17:21.486Z,995.81
2016-05-26T13:18:21.536Z,995.77
2016-05-26T13:19:21.383Z,995.77
2016-05-26T13:20:21.416Z,995.86
2016-05-26T13:21:21.419Z,995.86
2016-05-26T13:22:21.532Z,995.87
2016-05-26T13:23:21.455Z,995.86
2016-05-26T13:24:21.708Z,995.81
2016-05-26T13:25:21.477Z,995.84
2016-05-26T13:26:21.496Z,995.83
2016-05-26T13:27:21.576Z,995.9
2016-05-26T13:28:21.532Z,995.95
2016-05-26T13:29:21.535Z,995.95
2016-05-26T13:30:21.616Z,995.96
2016-05-26T13:31:21.837Z,995.98
2016-05-26T13:32:21.652Z,995.9
2016-05-26T13:33:22.077Z,995.84
2016-05-26T13:34:21.626Z,995.83
2016-05-26T13:35:21.629Z,995.8
2016-05-26T13:36:21.647Z,995.86
2016-05-26T13:37:21.666Z,995.76
2016-05-26T13:38:21.684Z,995.87
2016-05-26T13:39:21.702Z,995.95
2016-05-26T13:40:21.721Z,995.91
2016-05-26T13:41:21.754Z,995.88
2016-05-26T13:42:21.757Z,995.81
2016-05-26T13:43:21.791Z,995.77
2016-05-26T13:44:21.794Z,995.76
2016-05-26T13:45:21.797Z,995.73
2016-05-26T13:46:21.814Z,995.72
2016-05-26T13:47:21.833Z,995.75
2016-05-26T13:48:21.851Z,995.74
2016-05-26T13:49:21.869Z,995.77
2016-05-26T13:50:21.888Z,995.75
2016-05-26T13:51:21.891Z,995.74
2016-05-26T13:52:21.909Z,995.73
2016-05-26T13:53:21.927Z,995.75
2016-05-26T13:54:21.946Z,995.76
2016-05-26T13:55:21.964Z,995.82
2016-05-26T13:56:21.983Z,995.84
2016-05-26T13:57:21.985Z,995.9
2016-05-26T13:58:22.003Z,995.86
2016-05-26T13:59:22.022Z,995.88
2016-05-26T14:00:22.055Z,995.9
2016-05-26T14:01:22.090Z,995.99
2016-05-26T14:02:22.076Z,996.01
2016-05-26T14:03:22.235Z,996.04
2016-05-26T14:04:22.113Z,996.05
2016-05-26T14:05:22.132Z,996
2016-05-26T14:06:22.165Z,995.97
2016-05-26T14:07:22.168Z,995.92
2016-05-26T14:08:22.171Z,995.86
2016-05-26T14:09:22.190Z,995.87
2016-05-26T14:10:22.207Z,995.88
2016-05-26T14:11:22.226Z,995.89
2016-05-26T14:12:22.244Z,995.9
2016-05-26T14:13:22.262Z,995.91
2016-05-26T14:14:22.281Z,995.94
2016-05-26T14:15:22.299Z,995.95
2016-05-26T14:16:22.317Z,995.9
2016-05-26T14:17:22.522Z,995.92
2016-05-26T14:18:22.354Z,995.94
2016-05-26T14:19:22.372Z,995.94
2016-05-26T14:20:22.374Z,995.89
2016-05-26T14:21:22.393Z,995.88
2016-05-26T14:22:22.411Z,995.9
2016-05-26T14:23:22.430Z,995.94
2016-05-26T14:24:22.449Z,995.94
2016-05-26T14:25:22.451Z,995.91
2016-05-26T14:26:22.485Z,995.84
2016-05-26T14:27:22.488Z,995.86
2016-05-26T14:28:22.552Z,995.86
2016-05-26T14:29:22.727Z,995.79
2016-05-26T14:30:22.574Z,995.77
2016-05-26T14:31:22.560Z,995.8
2016-05-26T14:32:22.580Z,995.74
2016-05-26T14:33:22.613Z,995.74
2016-05-26T14:34:22.818Z,995.74
2016-05-26T14:35:22.618Z,995.73
2016-05-26T14:36:22.637Z,995.72
2016-05-26T14:37:22.655Z,995.74
2016-05-26T14:38:22.673Z,995.69
2016-05-26T14:39:22.692Z,995.65
2016-05-26T14:40:22.694Z,995.64
2016-05-26T14:41:22.728Z,995.72
2016-05-26T14:42:22.731Z,995.76
2016-05-26T14:43:22.749Z,995.77
2016-05-26T14:44:22.768Z,995.78
2016-05-26T14:45:22.786Z,995.85
2016-05-26T14:46:22.789Z,995.84
2016-05-26T14:47:22.806Z,995.8
2016-05-26T14:48:22.825Z,995.77
2016-05-26T14:49:22.844Z,995.78
2016-05-26T14:50:22.847Z,995.77
2016-05-26T14:51:22.880Z,995.79
2016-05-26T14:52:22.883Z,995.73
2016-05-26T14:53:22.917Z,995.65
2016-05-26T14:54:22.935Z,995.62
2016-05-26T14:55:22.939Z,995.66
2016-05-26T14:56:22.956Z,995.69
2016-05-26T14:57:22.958Z,995.74
2016-05-26T14:58:22.993Z,995.75
2016-05-26T14:59:22.980Z,995.78
2016-05-26T15:00:23.013Z,995.74
2016-05-26T15:01:23.017Z,995.67
2016-05-26T15:02:23.035Z,995.72
2016-05-26T15:03:23.054Z,995.72
2016-05-26T15:04:23.071Z,995.68
2016-05-26T15:05:23.340Z,995.64
2016-05-26T15:06:23.124Z,995.65
2016-05-26T15:07:23.126Z,995.73
2016-05-26T15:08:23.145Z,995.67
2016-05-26T15:09:23.148Z,995.58
2016-05-26T15:10:23.165Z,995.53
2016-05-26T15:11:23.184Z,995.53
2016-05-26T15:12:23.234Z,995.54
2016-05-26T15:13:23.206Z,995.54
2016-05-26T15:14:23.223Z,995.56
2016-05-26T15:15:23.257Z,995.67
2016-05-26T15:16:23.259Z,995.69
2016-05-26T15:18:23.297Z,995.6
2016-05-26T15:19:23.300Z,995.58
2016-05-26T15:20:23.333Z,995.6
2016-05-26T15:21:23.336Z,995.64
2016-05-26T15:22:23.355Z,995.67
2016-05-26T15:23:23.388Z,995.64
2016-05-26T15:24:23.391Z,995.6
2016-05-26T15:25:23.393Z,995.64
2016-05-26T15:26:23.428Z,995.63
2016-05-26T15:27:23.446Z,995.64
2016-05-26T15:28:23.480Z,995.66
2016-05-26T15:29:23.466Z,995.66
2016-05-26T15:30:23.485Z,995.61
2016-05-26T15:31:23.488Z,995.59
2016-05-26T15:32:23.506Z,995.56
2016-05-26T15:33:24.071Z,995.6
2016-05-26T15:34:23.543Z,995.63
2016-05-26T15:35:23.560Z,995.58
2016-05-26T15:36:23.580Z,995.64
2016-05-26T15:37:23.582Z,995.66
2016-05-26T15:38:23.600Z,995.69
2016-05-26T15:39:23.651Z,995.68
2016-05-26T15:40:23.637Z,995.63
2016-05-26T15:41:23.640Z,995.58
2016-05-26T15:42:23.674Z,995.52
2016-05-26T15:43:23.676Z,995.5
2016-05-26T15:44:23.695Z,995.53
2016-05-26T15:45:23.712Z,995.57
2016-05-26T15:46:23.731Z,995.59
2016-05-26T15:47:23.734Z,995.52
2016-05-26T15:48:23.846Z,995.57
2016-05-26T15:49:23.770Z,995.58
2016-05-26T15:50:23.820Z,995.6
2016-05-26T15:51:23.808Z,995.61
2016-05-26T15:52:23.825Z,995.6
2016-05-26T15:53:23.844Z,995.59
2016-05-26T15:54:23.862Z,995.57
2016-05-26T15:55:23.896Z,995.57
2016-05-26T15:56:23.883Z,995.55
2016-05-26T15:57:23.902Z,995.55
2016-05-26T15:58:23.919Z,995.56
2016-05-26T15:59:23.939Z,995.49
2016-05-26T16:00:23.956Z,995.51
2016-05-26T16:01:23.959Z,995.53
2016-05-26T16:02:23.978Z,995.49
2016-05-26T16:03:23.996Z,995.54
2016-05-26T16:04:24.014Z,995.47
2016-05-26T16:05:24.016Z,995.45
2016-05-26T16:06:24.051Z,995.43
2016-05-26T16:07:24.054Z,995.48
2016-05-26T16:08:24.071Z,995.5
2016-05-26T16:09:24.090Z,995.5
2016-05-26T16:10:24.108Z,995.46
2016-05-26T16:11:24.112Z,995.5
2016-05-26T16:12:24.145Z,995.44
2016-05-26T16:13:24.148Z,995.41
2016-05-26T16:14:24.151Z,995.38
2016-05-26T16:15:24.418Z,995.4
2016-05-26T16:16:24.390Z,995.41
2016-05-26T16:17:24.205Z,995.4
2016-05-26T16:18:24.223Z,995.37
2016-05-26T16:19:24.242Z,995.41
2016-05-26T16:20:24.245Z,995.41
2016-05-26T16:21:24.264Z,995.41
2016-05-26T16:22:24.281Z,995.44
2016-05-26T16:23:24.300Z,995.48
2016-05-26T16:24:24.317Z,995.44
2016-05-26T16:25:24.320Z,995.44
2016-05-26T16:26:24.541Z,995.47
2016-05-26T16:27:24.357Z,995.48
2016-05-26T16:28:24.375Z,995.5
2016-05-26T16:29:24.394Z,995.48
2016-05-26T16:30:24.428Z,995.47
2016-05-26T16:31:24.430Z,995.47
2016-05-26T16:32:24.432Z,995.48
2016-05-26T16:33:24.452Z,995.48
2016-05-26T16:34:24.469Z,995.48
2016-05-26T16:35:24.488Z,995.48
2016-05-26T16:36:24.491Z,995.47
2016-05-26T16:37:24.713Z,995.47
2016-05-26T16:38:24.527Z,995.44
2016-05-26T16:39:24.546Z,995.42
2016-05-26T16:40:24.548Z,995.43
2016-05-26T16:41:24.567Z,995.41
2016-05-26T16:42:24.585Z,995.39